Eems Trader — V2DE3 — position and weather

sailwx.info

Track history (hours):
 
Tides and Currents Weather Stations Pressure Air Temp Water Temp Dewpoint Dewpoint Depression Visibility Wind Speed Wind Dir Waves Ship Positions

Eems Trader

Last reported at 2014-Jul-24 02:07 UTC. Time now 2014-Jul-24 04:24 UTC.
Position N 36°29' W 006°32'.

; draft 4 m.

Type: Cargo ship. MMSI: 305182000.

Date/timePositionNaut miles runAvg speedWind from/ knotsBaromVisibWave heightAir tempDewpointWater temp
2014-Jul-24 02:07N 36°29' W 006°32'8 9.6
2014-Jul-24 01:16N 36°37' W 006°35'810.0
2014-Jul-24 00:28N 36°44' W 006°39'62 2.1
2014-Jul-22 18:31N 36°47' W 007°56'1010.6
2014-Jul-22 17:33N 36°45' W 008°08'2110.5
2014-Jul-22 15:33N 36°39' W 008°34'1010.0
2014-Jul-22 14:32N 36°36' W 008°46'1010.2
2014-Jul-22 13:33N 36°33' W 008°58'10 9.9
2014-Jul-22 12:33N 36°34' W 009°10'13 9.9
2014-Jul-22 11:17N 36°41' W 009°23'810.4
2014-Jul-22 10:33N 36°46' W 009°30'1010.2
2014-Jul-22 09:33N 36°56' W 009°34'1110.4
2014-Jul-22 08:27N 37°07' W 009°37'910.5
2014-Jul-22 07:33N 37°16' W 009°40'1010.2
2014-Jul-22 06:33N 37°26' W 009°43'1010.3
2014-Jul-22 05:33N 37°36' W 009°46'1010.3
2014-Jul-22 04:33N 37°46' W 009°49'2110.5
2014-Jul-22 02:33N 38°07' W 009°55'1110.5
2014-Jul-22 01:33N 38°17' W 009°58'1010.5
2014-Jul-22 00:33N 38°27' W 010°01'  
2014-Jul-17 21:33N 38°38' W 009°48'11 9.6
2014-Jul-17 20:25N 38°33' W 009°36'8 9.6
2014-Jul-17 19:33N 38°29' W 009°26'10 9.7
2014-Jul-17 18:33N 38°24' W 009°16'9 9.2
2014-Jul-17 17:33N 38°25' W 009°04'8 8.4
2014-Jul-17 16:33N 38°30' W 008°55'3 0.4
2014-Jul-17 09:16N 38°31' W 008°53'0 0.0
2014-Jul-17 07:12N 38°31' W 008°53'0 0.0
2014-Jul-16 23:25N 38°31' W 008°53'0 0.0
2014-Jul-16 22:28N 38°31' W 008°53'0 0.0
2014-Jul-16 21:25N 38°31' W 008°53'0 0.0
2014-Jul-16 20:31N 38°31' W 008°53'0 0.0
2014-Jul-16 19:31N 38°31' W 008°53'1 0.6
2014-Jul-16 18:33N 38°31' W 008°53'7 7.1
2014-Jul-16 17:33N 38°25' W 008°59'8 8.2
2014-Jul-16 16:33N 38°17' W 009°01'9 8.9
2014-Jul-16 15:33N 38°08' W 009°03'9 8.9
2014-Jul-16 14:33N 37°60' W 009°06'9 8.7
2014-Jul-16 13:33N 37°51' W 009°08'8 8.5
2014-Jul-16 12:33N 37°43' W 009°10'9 8.8
2014-Jul-16 11:33N 37°34' W 009°12'9 9.2
2014-Jul-16 10:33N 37°25' W 009°14'9 8.7
2014-Jul-16 09:29N 37°16' W 009°16'8 8.8
2014-Jul-16 08:33N 37°08' W 009°18'9 8.7
2014-Jul-16 07:28N 36°59' W 009°20'8 8.4
2014-Jul-16 06:30N 36°51' W 009°16'9 8.8
2014-Jul-16 05:31N 36°45' W 009°08'17 8.8
2014-Jul-16 03:33N 36°41' W 008°47'9 9.0
2014-Jul-16 02:33N 36°38' W 008°36'9 9.4
2014-Jul-16 01:33N 36°36' W 008°25'9 9.3
2014-Jul-16 00:33N 36°33' W 008°14'10 9.5
2014-Jul-15 23:31N 36°30' W 008°02'9 9.3
2014-Jul-15 22:33N 36°28' W 007°52'27 9.0
2014-Jul-15 19:33N 36°21' W 007°19'9 9.1
2014-Jul-15 18:33N 36°18' W 007°08'27 9.1
2014-Jul-15 15:33N 36°11' W 006°36'280 8.9
2014-Jul-14 08:05N 37°07' W 000°54'610.1
2014-Jul-14 07:29N 37°11' W 000°47'1110.0
2014-Jul-14 06:24N 37°16' W 000°36'1810.0
2014-Jul-14 04:33N 37°27' W 000°17'10 9.6
2014-Jul-14 03:33N 37°32' W 000°06'10 9.7
2014-Jul-14 02:30N 37°37' E 000°05'  
Track history (hours):
 
Tides and Currents Weather Stations Pressure Air Temp Water Temp Dewpoint Dewpoint Depression Visibility Wind Speed Wind Dir Waves Ship Positions

Eems Trader

Last reported at 2014-Jul-24 02:07 UTC. Time now 2014-Jul-24 04:24 UTC.
Position N 36°29' W 006°32'.

; draft 4 m.

Type: Cargo ship. MMSI: 305182000.

Date/timePositionNaut miles runAvg speedWind from/ knotsBaromVisibWave heightAir tempDewpointWater temp
2014-Jul-24 02:07N 36°29' W 006°32'8 9.6
2014-Jul-24 01:16N 36°37' W 006°35'810.0
2014-Jul-24 00:28N 36°44' W 006°39'62 2.1
2014-Jul-22 18:31N 36°47' W 007°56'1010.6
2014-Jul-22 17:33N 36°45' W 008°08'2110.5
2014-Jul-22 15:33N 36°39' W 008°34'1010.0
2014-Jul-22 14:32N 36°36' W 008°46'1010.2
2014-Jul-22 13:33N 36°33' W 008°58'10 9.9
2014-Jul-22 12:33N 36°34' W 009°10'13 9.9
2014-Jul-22 11:17N 36°41' W 009°23'810.4
2014-Jul-22 10:33N 36°46' W 009°30'1010.2
2014-Jul-22 09:33N 36°56' W 009°34'1110.4
2014-Jul-22 08:27N 37°07' W 009°37'910.5
2014-Jul-22 07:33N 37°16' W 009°40'1010.2
2014-Jul-22 06:33N 37°26' W 009°43'1010.3
2014-Jul-22 05:33N 37°36' W 009°46'1010.3
2014-Jul-22 04:33N 37°46' W 009°49'2110.5
2014-Jul-22 02:33N 38°07' W 009°55'1110.5
2014-Jul-22 01:33N 38°17' W 009°58'1010.5
2014-Jul-22 00:33N 38°27' W 010°01'  
2014-Jul-17 21:33N 38°38' W 009°48'11 9.6
2014-Jul-17 20:25N 38°33' W 009°36'8 9.6
2014-Jul-17 19:33N 38°29' W 009°26'10 9.7
2014-Jul-17 18:33N 38°24' W 009°16'9 9.2
2014-Jul-17 17:33N 38°25' W 009°04'8 8.4
2014-Jul-17 16:33N 38°30' W 008°55'3 0.4
2014-Jul-17 09:16N 38°31' W 008°53'0 0.0
2014-Jul-17 07:12N 38°31' W 008°53'0 0.0
2014-Jul-16 23:25N 38°31' W 008°53'0 0.0
2014-Jul-16 22:28N 38°31' W 008°53'0 0.0
2014-Jul-16 21:25N 38°31' W 008°53'0 0.0
2014-Jul-16 20:31N 38°31' W 008°53'0 0.0
2014-Jul-16 19:31N 38°31' W 008°53'1 0.6
2014-Jul-16 18:33N 38°31' W 008°53'7 7.1
2014-Jul-16 17:33N 38°25' W 008°59'8 8.2
2014-Jul-16 16:33N 38°17' W 009°01'9 8.9
2014-Jul-16 15:33N 38°08' W 009°03'9 8.9
2014-Jul-16 14:33N 37°60' W 009°06'9 8.7
2014-Jul-16 13:33N 37°51' W 009°08'8 8.5
2014-Jul-16 12:33N 37°43' W 009°10'9 8.8
2014-Jul-16 11:33N 37°34' W 009°12'9 9.2
2014-Jul-16 10:33N 37°25' W 009°14'9 8.7
2014-Jul-16 09:29N 37°16' W 009°16'8 8.8
2014-Jul-16 08:33N 37°08' W 009°18'9 8.7
2014-Jul-16 07:28N 36°59' W 009°20'8 8.4
2014-Jul-16 06:30N 36°51' W 009°16'9 8.8
2014-Jul-16 05:31N 36°45' W 009°08'17 8.8
2014-Jul-16 03:33N 36°41' W 008°47'9 9.0
2014-Jul-16 02:33N 36°38' W 008°36'9 9.4
2014-Jul-16 01:33N 36°36' W 008°25'9 9.3
2014-Jul-16 00:33N 36°33' W 008°14'10 9.5
2014-Jul-15 23:31N 36°30' W 008°02'9 9.3
2014-Jul-15 22:33N 36°28' W 007°52'27 9.0
2014-Jul-15 19:33N 36°21' W 007°19'9 9.1
2014-Jul-15 18:33N 36°18' W 007°08'27 9.1
2014-Jul-15 15:33N 36°11' W 006°36'280 8.9
2014-Jul-14 08:05N 37°07' W 000°54'610.1
2014-Jul-14 07:29N 37°11' W 000°47'1110.0
2014-Jul-14 06:24N 37°16' W 000°36'1810.0
2014-Jul-14 04:33N 37°27' W 000°17'10 9.6
2014-Jul-14 03:33N 37°32' W 000°06'10 9.7
2014-Jul-14 02:30N 37°37' E 000°05'  

Dump ship's entire track history